createdAt,value
2023-02-19T07:16:19.116Z,78.90
2023-02-19T07:19:23.335Z,79.00
2023-02-19T07:22:25.178Z,79.00
2023-02-19T07:25:26.875Z,79.00
2023-02-19T07:28:28.520Z,79.00
2023-02-19T07:31:30.306Z,78.90
2023-02-19T07:34:32.243Z,78.70
2023-02-19T07:37:33.901Z,78.60
2023-02-19T07:40:36.621Z,78.60
2023-02-19T07:43:38.485Z,78.50
2023-02-19T07:46:40.112Z,78.40
2023-02-19T07:49:41.745Z,78.40
2023-02-19T07:52:43.391Z,78.40
2023-02-19T07:55:45.288Z,78.20
2023-02-19T07:58:46.994Z,77.90
2023-02-19T08:02:07.246Z,77.90
2023-02-19T08:05:09.232Z,77.70
2023-02-19T08:08:14.559Z,77.60
2023-02-19T08:11:34.962Z,77.60
2023-02-19T08:14:36.727Z,77.60
2023-02-19T08:17:38.733Z,77.50
2023-02-19T08:20:40.796Z,77.40
2023-02-19T08:23:42.660Z,77.20
2023-02-19T08:26:44.351Z,77.10
2023-02-19T08:29:45.993Z,77.00
2023-02-19T08:32:47.658Z,77.10
2023-02-19T08:35:49.482Z,77.10
2023-02-19T08:38:51.111Z,77.10
2023-02-19T08:41:52.744Z,77.10
2023-02-19T08:44:54.465Z,77.20
2023-02-19T08:47:56.101Z,77.10
2023-02-19T08:50:59.268Z,77.00
2023-02-19T08:54:03.384Z,77.00
2023-02-19T08:57:05.319Z,77.10
2023-02-19T09:00:07.494Z,77.10
2023-02-19T09:03:09.666Z,76.90
2023-02-19T09:06:17.299Z,76.90
2023-02-19T09:09:18.950Z,76.80
2023-02-19T09:12:20.817Z,76.70
2023-02-19T09:15:22.520Z,76.80
2023-02-19T09:18:24.978Z,76.90
2023-02-19T09:21:26.634Z,77.00
2023-02-19T09:24:28.595Z,77.00
2023-02-19T09:27:32.214Z,77.10
2023-02-19T09:30:33.925Z,77.00
2023-02-19T09:33:35.790Z,76.90
2023-02-19T09:36:38.250Z,76.60
2023-02-19T09:39:39.875Z,76.40
2023-02-19T09:42:42.508Z,76.10
2023-02-19T09:45:44.483Z,76.10
2023-02-19T09:48:46.130Z,75.90
2023-02-19T09:51:50.739Z,75.70
2023-02-19T09:54:57.524Z,75.20
2023-02-19T09:57:59.608Z,74.40
2023-02-19T10:01:02.362Z,73.80
2023-02-19T10:04:04.448Z,73.70
2023-02-19T10:07:08.320Z,73.00
2023-02-19T10:10:26.720Z,72.80
2023-02-19T10:13:34.516Z,72.30
2023-02-19T10:16:40.407Z,71.80
2023-02-19T10:19:42.078Z,71.20
2023-02-19T10:22:43.796Z,71.00
2023-02-19T10:25:57.182Z,70.60
2023-02-19T10:28:58.823Z,70.20
2023-02-19T10:32:29.792Z,70.00
2023-02-19T10:35:34.876Z,69.30
2023-02-19T10:38:40.390Z,69.10
2023-02-19T10:41:44.154Z,68.90
2023-02-19T10:44:51.783Z,68.90
2023-02-19T10:47:53.426Z,68.70
2023-02-19T10:50:58.192Z,68.80
2023-02-19T10:54:28.456Z,68.70
2023-02-19T10:57:32.622Z,68.30
2023-02-19T11:00:34.473Z,68.00
2023-02-19T11:03:36.387Z,67.70
2023-02-19T11:06:38.047Z,67.30
2023-02-19T11:09:40.601Z,66.90
2023-02-19T11:12:42.277Z,66.50
2023-02-19T11:15:44.119Z,66.00
2023-02-19T11:18:45.884Z,65.80
2023-02-19T11:21:47.536Z,65.50
2023-02-19T11:24:50.375Z,65.20
2023-02-19T11:28:06.843Z,65.20
2023-02-19T11:31:26.944Z,65.00
2023-02-19T11:34:30.064Z,64.70
2023-02-19T11:37:31.758Z,64.40
2023-02-19T11:40:55.541Z,64.50
2023-02-19T11:44:25.681Z,64.30
2023-02-19T11:47:42.434Z,64.40
2023-02-19T11:51:03.370Z,64.40
2023-02-19T11:54:09.121Z,64.30
2023-02-19T11:57:33.260Z,64.00
2023-02-19T12:00:40.969Z,63.40
2023-02-19T12:04:16.087Z,63.00
2023-02-19T12:07:23.041Z,62.30
2023-02-19T12:10:42.668Z,62.00
2023-02-19T12:13:55.976Z,61.90
2023-02-19T12:17:30.155Z,61.60
2023-02-19T12:20:34.615Z,61.10
2023-02-19T12:24:01.231Z,60.20
2023-02-19T12:27:09.948Z,59.30
2023-02-19T12:30:49.080Z,59.10
2023-02-19T12:34:24.700Z,58.90
2023-02-19T12:38:04.765Z,59.00
2023-02-19T12:41:23.213Z,58.40
2023-02-19T12:44:38.146Z,58.00
2023-02-19T12:47:40.740Z,57.80
2023-02-19T12:50:42.439Z,57.60
2023-02-19T12:53:52.192Z,57.10
2023-02-19T12:57:09.083Z,56.90
2023-02-19T13:00:42.715Z,56.90
2023-02-19T13:03:53.672Z,56.60
2023-02-19T13:07:17.190Z,56.30
2023-02-19T13:10:37.659Z,56.20
2023-02-19T13:14:00.476Z,56.00
2023-02-19T13:17:19.946Z,55.90
2023-02-19T13:20:37.259Z,56.00
2023-02-19T13:23:58.695Z,56.10
2023-02-19T13:27:00.259Z,56.20
2023-02-19T13:30:08.239Z,56.30
2023-02-19T13:33:34.660Z,56.30
2023-02-19T13:36:36.320Z,56.10
2023-02-19T13:39:38.017Z,56.10
2023-02-19T13:42:39.652Z,56.20
2023-02-19T13:45:48.632Z,56.20
2023-02-19T13:48:50.584Z,56.10
2023-02-19T13:51:59.243Z,56.10
2023-02-19T13:55:56.947Z,56.20
2023-02-19T13:58:59.639Z,56.20
2023-02-19T14:02:01.243Z,56.40
2023-02-19T14:05:05.691Z,56.60
2023-02-19T14:08:08.208Z,56.60
2023-02-19T14:11:14.121Z,56.50
2023-02-19T14:14:31.960Z,56.20
2023-02-19T14:17:40.302Z,56.30
2023-02-19T14:20:45.034Z,55.90
2023-02-19T14:23:52.320Z,55.90
2023-02-19T14:26:53.959Z,55.80
2023-02-19T14:29:55.656Z,55.70
2023-02-19T14:33:09.759Z,55.50
2023-02-19T14:36:32.492Z,55.60
2023-02-19T14:39:36.353Z,55.70
2023-02-19T14:42:38.057Z,55.90
2023-02-19T14:45:48.569Z,56.20
2023-02-19T14:48:50.294Z,56.30
2023-02-19T14:51:59.295Z,56.30
2023-02-19T14:55:02.088Z,56.40
2023-02-19T14:58:10.832Z,56.30
2023-02-19T15:01:28.196Z,56.30
2023-02-19T15:04:34.992Z,56.50
2023-02-19T15:07:36.669Z,56.40
2023-02-19T15:10:38.454Z,56.20
2023-02-19T15:13:45.471Z,55.80
2023-02-19T15:16:47.149Z,55.50
2023-02-19T15:19:48.828Z,55.60
2023-02-19T15:22:50.485Z,55.50
2023-02-19T15:25:52.480Z,55.30
2023-02-19T15:28:59.191Z,55.00
2023-02-19T15:32:00.995Z,54.90
2023-02-19T15:35:04.245Z,54.60
2023-02-19T15:38:06.389Z,54.70
2023-02-19T15:41:13.532Z,54.50
2023-02-19T15:44:32.613Z,54.00
2023-02-19T15:47:39.813Z,53.70
2023-02-19T15:50:46.382Z,53.50
2023-02-19T15:53:50.970Z,53.40
2023-02-19T15:56:52.631Z,53.10
2023-02-19T16:00:13.136Z,53.20
2023-02-19T16:03:22.582Z,53.00
2023-02-19T16:06:26.714Z,52.60
2023-02-19T16:09:39.488Z,52.60
2023-02-19T16:12:41.140Z,52.40
2023-02-19T16:15:45.695Z,52.40
2023-02-19T16:18:48.824Z,52.50
2023-02-19T16:21:51.179Z,52.60
2023-02-19T16:24:57.160Z,52.80
2023-02-19T16:27:59.112Z,52.40
2023-02-19T16:31:09.199Z,52.20
2023-02-19T16:34:49.140Z,51.80
2023-02-19T16:37:58.097Z,52.00
2023-02-19T16:41:06.596Z,52.60
2023-02-19T16:44:32.297Z,53.20
2023-02-19T16:47:36.478Z,54.00
2023-02-19T16:50:41.284Z,54.70
2023-02-19T16:53:42.965Z,55.30
2023-02-19T16:56:44.641Z,55.80
2023-02-19T16:59:47.100Z,56.10
2023-02-19T17:02:50.142Z,56.50
2023-02-19T17:05:51.938Z,56.80
2023-02-19T17:08:53.637Z,57.30
2023-02-19T17:11:55.313Z,57.40
2023-02-19T17:14:57.026Z,57.80
2023-02-19T17:17:58.652Z,58.20
2023-02-19T17:21:18.036Z,58.40
2023-02-19T17:24:19.927Z,58.80
2023-02-19T17:27:21.583Z,59.00
2023-02-19T17:30:27.634Z,59.30
2023-02-19T17:33:29.425Z,59.60
2023-02-19T17:36:31.768Z,59.90
2023-02-19T17:39:33.413Z,60.20
2023-02-19T17:42:37.743Z,60.50
2023-02-19T17:45:39.586Z,60.90
2023-02-19T17:48:41.338Z,61.10
2023-02-19T17:51:42.999Z,61.30
2023-02-19T17:54:47.580Z,61.60
2023-02-19T17:57:51.668Z,61.90
2023-02-19T18:00:56.058Z,62.20
2023-02-19T18:03:58.088Z,62.30
2023-02-19T18:07:02.810Z,62.60
2023-02-19T18:10:05.355Z,62.90
2023-02-19T18:13:06.988Z,63.20
2023-02-19T18:16:09.930Z,63.30
2023-02-19T18:19:11.873Z,63.60
2023-02-19T18:22:18.051Z,63.70
2023-02-19T18:25:20.182Z,63.90
2023-02-19T18:28:21.838Z,64.20
2023-02-19T18:31:23.672Z,64.50
2023-02-19T18:34:26.804Z,64.90
2023-02-19T18:37:30.970Z,65.30
2023-02-19T18:40:32.658Z,65.80
2023-02-19T18:43:34.289Z,66.10
2023-02-19T18:46:35.949Z,66.50
2023-02-19T18:49:37.697Z,66.90
2023-02-19T18:52:39.365Z,67.30
2023-02-19T18:55:41.245Z,67.50
2023-02-19T18:58:42.913Z,67.80
2023-02-19T19:01:45.027Z,68.30
2023-02-19T19:04:51.192Z,68.60
2023-02-19T19:07:54.057Z,68.80
2023-02-19T19:10:55.719Z,69.30
2023-02-19T19:13:57.651Z,69.50
2023-02-19T19:17:00.189Z,69.70
2023-02-19T19:20:01.891Z,69.90
2023-02-19T19:23:05.939Z,70.30
2023-02-19T19:26:07.764Z,70.50
2023-02-19T19:29:09.515Z,70.70
2023-02-19T19:32:11.519Z,70.90
2023-02-19T19:35:16.332Z,71.10
2023-02-19T19:38:17.948Z,71.30
2023-02-19T19:41:19.811Z,71.50
2023-02-19T19:44:23.013Z,71.60
2023-02-19T19:47:24.659Z,71.80
2023-02-19T19:50:26.395Z,72.00
2023-02-19T19:53:28.059Z,72.10
2023-02-19T19:56:30.276Z,72.30
2023-02-19T19:59:32.078Z,72.50
2023-02-19T20:02:33.751Z,72.60
2023-02-19T20:05:35.673Z,72.60
2023-02-19T20:08:37.312Z,72.90
2023-02-19T20:11:49.665Z,73.00
2023-02-19T20:14:51.424Z,73.30
2023-02-19T20:17:53.121Z,73.40
2023-02-19T20:20:54.751Z,73.60
2023-02-19T20:23:56.610Z,73.80
2023-02-19T20:27:01.954Z,73.80
2023-02-19T20:30:04.506Z,74.00
2023-02-19T20:33:09.412Z,74.00
2023-02-19T20:36:13.804Z,74.20
2023-02-19T20:39:19.451Z,74.20
2023-02-19T20:42:21.256Z,74.30
2023-02-19T20:45:25.580Z,74.40
2023-02-19T20:48:30.404Z,74.50
2023-02-19T20:52:02.919Z,74.60
2023-02-19T20:55:05.147Z,74.70
2023-02-19T20:58:09.746Z,74.80
2023-02-19T21:01:12.031Z,74.80
2023-02-19T21:04:14.157Z,74.90
2023-02-19T21:07:15.879Z,75.10
2023-02-19T21:10:17.690Z,75.40
2023-02-19T21:13:22.024Z,75.50
2023-02-19T21:16:26.076Z,75.70
2023-02-19T21:19:29.819Z,75.70
2023-02-19T21:22:31.452Z,76.00
2023-02-19T21:25:33.328Z,76.00
2023-02-19T21:28:34.970Z,76.20
2023-02-19T21:31:47.378Z,76.30
2023-02-19T21:34:50.726Z,76.40
2023-02-19T21:37:55.281Z,76.50
2023-02-19T21:40:59.417Z,76.60
2023-02-19T21:44:03.478Z,76.80
2023-02-19T21:47:05.191Z,77.00
2023-02-19T21:50:07.459Z,77.10
2023-02-19T21:53:09.200Z,77.20
2023-02-19T21:56:11.160Z,77.20
2023-02-19T21:59:13.056Z,77.30
2023-02-19T22:02:15.001Z,77.50
2023-02-19T22:05:16.888Z,77.50
2023-02-19T22:08:18.765Z,77.70
